TimeCST,TemperatureF,Dew PointF,Humidity,Sea Level PressureIn,VisibilityMPH,Wind Direction,Wind SpeedMPH,Gust SpeedMPH,PrecipitationIn,Events,Conditions,WindDirDegrees,DateUTC
12:53 AM,21.0,10.9,65,30.19,10.0,NNW,13.8,-,N/A,,Clear,330,2012-12-26 06:53:00
1:53 AM,19.9,10.0,65,30.21,10.0,NNW,15.0,-,N/A,,Partly Cloudy,340,2012-12-26 07:53:00
3:53 AM,17.1,9.0,71,30.23,10.0,NNW,13.8,-,N/A,,Clear,340,2012-12-26 09:53:00
4:17 AM,17.6,8.6,68,30.20,10.0,NNW,12.7,-,N/A,,Mostly Cloudy,340,2012-12-26 10:17:00
4:53 AM,17.1,9.0,71,30.22,10.0,NNW,10.4,-,N/A,,Overcast,340,2012-12-26 10:53:00
5:53 AM,15.1,8.1,74,30.22,10.0,NNW,12.7,-,N/A,,Scattered Clouds,340,2012-12-26 11:53:00
6:53 AM,14.0,8.1,77,30.24,10.0,NNW,13.8,-,N/A,,Clear,340,2012-12-26 12:53:00
7:53 AM,14.0,8.1,77,30.25,10.0,North,10.4,-,N/A,,Clear,350,2012-12-26 13:53:00
8:53 AM,17.1,9.0,71,30.28,10.0,North,11.5,-,N/A,,Clear,350,2012-12-26 14:53:00
9:53 AM,19.9,10.0,65,30.30,10.0,NNW,12.7,-,N/A,,Clear,330,2012-12-26 15:53:00
10:53 AM,24.1,10.9,57,30.32,10.0,NW,9.2,-,N/A,,Clear,320,2012-12-26 16:53:00
11:53 AM,26.1,12.0,55,30.28,10.0,NW,6.9,-,N/A,,Clear,310,2012-12-26 17:53:00
12:53 PM,30.0,15.1,54,30.24,10.0,Variable,3.5,-,N/A,,Clear,0,2012-12-26 18:53:00
1:53 PM,32.0,16.0,52,30.21,10.0,North,8.1,-,N/A,,Clear,350,2012-12-26 19:53:00
2:53 PM,33.1,17.1,52,30.20,10.0,North,5.8,-,N/A,,Clear,360,2012-12-26 20:53:00
3:53 PM,32.0,17.1,54,30.22,10.0,NNW,5.8,-,N/A,,Clear,330,2012-12-26 21:53:00
4:53 PM,30.9,16.0,54,30.21,10.0,Calm,Calm,-,N/A,,Clear,0,2012-12-26 22:53:00
5:53 PM,30.0,16.0,56,30.19,10.0,NE,5.8,-,N/A,,Clear,50,2012-12-26 23:53:00
6:53 PM,28.4,15.8,59,30.18,10.0,Calm,Calm,-,N/A,,Clear,0,2012-12-27 00:53:00
7:53 PM,28.9,16.0,58,30.20,10.0,Calm,Calm,-,N/A,,Clear,0,2012-12-27 01:53:00
8:53 PM,25.0,16.0,69,30.18,10.0,Calm,Calm,-,N/A,,Clear,0,2012-12-27 02:53:00
9:53 PM,27.0,17.1,66,30.16,10.0,ENE,4.6,-,N/A,,Clear,70,2012-12-27 03:53:00
10:53 PM,25.0,16.0,69,30.15,10.0,East,3.5,-,N/A,,Clear,90,2012-12-27 04:53:00
11:53 PM,25.0,17.1,72,30.15,10.0,Calm,Calm,-,N/A,,Clear,0,2012-12-27 05:53:00